Time;durP1;ratioP1;P1;durP2;ratioP2;P2;SDS_P1;SDS_P2;PMS_P1;PMS_P2;Temp;Humidity;BMP_temperature;BMP_pressure;BME280_temperature;BME280_humidity;BME280_pressure;Samples;Min_cycle;Max_cycle;Signal;HPM_P1;HPM_P2
2022/08/03 00:00:58;;;;;;;3.05;1.00;;;21.00;99.90;;;;;;4941575;28;20054;-87
2022/08/03 00:03:59;;;;;;;2.50;1.00;;;20.90;99.90;;;;;;4944714;28;20051;-86
2022/08/03 00:06:54;;;;;;;2.75;1.02;;;20.80;99.90;;;;;;4937494;28;20069;-85
2022/08/03 00:12:50;;;;;;;2.33;1.08;;;20.80;99.90;;;;;;4956825;28;20035;-86
2022/08/03 00:15:56;;;;;;;2.47;1.23;;;20.80;99.90;;;;;;4958454;28;20031;-86
2022/08/03 00:18:25;;;;;;;3.03;1.30;;;20.80;99.90;;;;;;4940785;29;20104;-86
2022/08/03 00:20:53;;;;;;;2.67;1.27;;;20.80;99.90;;;;;;4941452;28;20358;-86
2022/08/03 00:23:28;;;;;;;2.83;1.20;;;20.70;99.90;;;;;;4940869;29;20428;-86
2022/08/03 00:26:17;;;;;;;;;;;;;;;;;;;;;
2022/08/03 00:28:50;;;;;;;3.05;0.90;;;20.70;99.90;;;;;;4960393;28;20132;-86
2022/08/03 00:31:40;;;;;;;3.50;1.27;;;20.70;99.90;;;;;;4943765;28;20027;-85
2022/08/03 00:34:14;;;;;;;3.03;1.55;;;20.70;99.90;;;;;;4940164;28;20035;-85
2022/08/03 00:36:52;;;;;;;4.28;1.70;;;20.60;99.90;;;;;;4939920;28;20027;-88
2022/08/03 00:39:26;;;;;;;2.53;1.00;;;20.60;99.90;;;;;;4955947;28;20062;-86
2022/08/03 00:41:56;;;;;;;1.60;0.80;;;20.60;99.90;;;;;;4940297;28;20048;-85
2022/08/03 00:47:22;;;;;;;2.33;1.00;;;20.50;99.90;;;;;;4952654;28;20043;-85
2022/08/03 00:50:05;;;;;;;2.20;0.90;;;20.50;99.90;;;;;;4938552;28;20042;-85
2022/08/03 00:52:45;;;;;;;2.83;1.13;;;20.50;99.90;;;;;;4939553;29;20177;-85
2022/08/03 00:55:28;;;;;;;2.13;0.90;;;20.40;99.90;;;;;;4954762;28;20030;-85
2022/08/03 00:58:35;;;;;;;2.80;1.10;;;20.40;99.90;;;;;;4939343;28;20042;-84
2022/08/03 01:01:11;;;;;;;2.00;0.98;;;20.40;99.90;;;;;;4951176;28;20381;-85
2022/08/03 01:03:54;;;;;;;2.30;1.00;;;20.40;99.90;;;;;;4940928;28;20512;-87
2022/08/03 01:06:39;;;;;;;2.20;0.85;;;20.30;99.90;;;;;;4936311;28;20067;-85
2022/08/03 01:12:51;;;;;;;2.33;1.02;;;20.30;99.90;;;;;;4952566;28;20043;-84
2022/08/03 01:16:00;;;;;;;;;;;;;;;;;;;;;
2022/08/03 01:19:06;;;;;;;2.40;1.10;;;20.20;99.90;;;;;;4956002;28;20479;-85
2022/08/03 01:21:53;;;;;;;2.45;1.10;;;20.20;99.90;;;;;;4956401;28;20033;-85
2022/08/03 01:24:32;;;;;;;2.28;1.15;;;20.20;99.90;;;;;;4948216;28;20035;-85
2022/08/03 01:27:11;;;;;;;2.53;1.10;;;20.20;99.90;;;;;;4951372;29;20027;-84
2022/08/03 01:30:07;;;;;;;3.42;1.30;;;20.10;99.90;;;;;;4946785;28;20516;-85
2022/08/03 01:33:08;;;;;;;2.50;1.02;;;20.10;99.90;;;;;;4956908;28;20148;-86
2022/08/03 01:35:57;;;;;;;2.30;1.00;;;20.10;99.90;;;;;;4938418;29;20031;-85
2022/08/03 01:38:49;;;;;;;6.03;2.47;;;20.10;99.90;;;;;;4940701;28;20034;-85
2022/08/03 01:41:43;;;;;;;2.88;1.10;;;20.10;99.90;;;;;;4935271;29;20039;-85
2022/08/03 01:44:35;;;;;;;2.15;1.13;;;20.00;99.90;;;;;;4928714;28;20488;-86
2022/08/03 01:47:23;;;;;;;2.47;0.93;;;20.00;99.90;;;;;;4938099;28;20479;-85
2022/08/03 01:49:57;;;;;;;3.55;1.20;;;20.00;99.90;;;;;;4939970;28;20027;-84
2022/08/03 01:55:31;;;;;;;2.53;1.08;;;20.00;99.90;;;;;;4960143;28;20038;-86
2022/08/03 01:58:25;;;;;;;3.08;1.52;;;19.90;99.90;;;;;;4938370;28;20028;-85
2022/08/03 02:00:59;;;;;;;2.72;1.20;;;19.80;99.90;;;;;;4953819;28;20078;-83
2022/08/03 02:03:52;;;;;;;2.97;1.27;;;19.90;99.90;;;;;;4934636;28;20063;-85
2022/08/03 02:06:21;;;;;;;3.70;1.52;;;19.90;99.90;;;;;;4947379;23;20063;-87
2022/08/03 02:08:55;;;;;;;3.33;1.27;;;19.80;99.90;;;;;;4931873;29;20023;-88
2022/08/03 02:11:25;;;;;;;3.25;1.50;;;19.80;99.90;;;;;;4923602;29;20039;-87
2022/08/03 02:13:54;;;;;;;2.85;1.35;;;19.80;99.90;;;;;;4928435;29;20055;-88
2022/08/03 02:16:22;;;;;;;2.30;1.35;;;19.70;99.90;;;;;;4908979;29;20050;-88
2022/08/03 02:18:50;;;;;;;3.08;1.60;;;19.70;99.90;;;;;;4916624;29;20446;-87
2022/08/03 02:21:16;;;;;;;2.88;1.50;;;19.70;99.90;;;;;;4908512;29;20059;-88
2022/08/03 02:23:42;;;;;;;2.88;1.40;;;19.60;99.90;;;;;;4920625;29;20035;-88
2022/08/03 02:26:15;;;;;;;3.30;1.73;;;19.50;99.90;;;;;;4901826;29;20029;-88
2022/08/03 02:28:51;;;;;;;3.50;1.75;;;19.50;99.90;;;;;;4917538;29;20031;-88
2022/08/03 02:31:25;;;;;;;4.30;1.88;;;19.50;99.90;;;;;;4903020;29;20199;-88
2022/08/03 02:33:55;;;;;;;3.20;1.65;;;19.50;99.90;;;;;;4905519;29;20032;-89
2022/08/03 02:36:36;;;;;;;4.13;1.85;;;19.50;99.90;;;;;;4908002;29;20506;-88
2022/08/03 02:39:04;;;;;;;3.95;2.05;;;19.50;99.90;;;;;;4908253;29;20056;-88
2022/08/03 02:41:47;;;;;;;5.88;2.10;;;19.40;99.90;;;;;;4907235;29;20064;-88
2022/08/03 02:44:22;;;;;;;4.50;2.10;;;19.40;99.90;;;;;;4920012;29;20127;-88
2022/08/03 02:46:56;;;;;;;2.92;1.58;;;19.50;99.90;;;;;;4925718;29;20036;-88
2022/08/03 02:49:24;;;;;;;3.80;1.70;;;19.40;99.90;;;;;;4911484;29;20032;-88
2022/08/03 02:51:52;;;;;;;3.83;2.08;;;19.30;99.90;;;;;;4923087;29;20035;-88
2022/08/03 02:54:28;;;;;;;3.03;1.55;;;19.30;99.90;;;;;;4910973;29;20115;-88
2022/08/03 02:56:55;;;;;;;4.70;1.98;;;19.20;99.90;;;;;;4909776;29;20024;-88
2022/08/03 02:59:22;;;;;;;3.80;1.73;;;19.10;99.90;;;;;;4906588;29;20024;-88
2022/08/03 03:01:49;;;;;;;3.33;1.88;;;19.20;99.90;;;;;;4914640;29;20095;-88
2022/08/03 03:04:16;;;;;;;4.13;1.55;;;19.20;99.90;;;;;;4908380;29;20032;-88
2022/08/03 03:06:43;;;;;;;3.22;1.80;;;19.20;99.90;;;;;;4907503;29;20086;-88
2022/08/03 03:09:09;;;;;;;3.25;1.55;;;19.10;99.90;;;;;;4908869;29;20035;-88
2022/08/03 03:11:38;;;;;;;3.85;1.90;;;19.10;99.90;;;;;;4921843;29;20429;-88
2022/08/03 03:14:04;;;;;;;4.20;1.70;;;19.10;99.90;;;;;;4903872;29;20028;-88
2022/08/03 03:16:33;;;;;;;3.40;1.58;;;19.00;99.90;;;;;;4916004;29;20027;-88
2022/08/03 03:19:00;;;;;;;3.88;1.80;;;19.00;99.90;;;;;;4905520;29;20044;-88
2022/08/03 03:21:28;;;;;;;3.22;1.65;;;19.00;99.90;;;;;;4908859;29;20079;-88
2022/08/03 03:23:54;;;;;;;3.25;1.55;;;19.00;99.90;;;;;;4918734;29;20024;-89
2022/08/03 03:26:20;;;;;;;3.17;1.75;;;19.00;99.90;;;;;;4922521;29;20023;-88
2022/08/03 03:28:46;;;;;;;5.10;2.30;;;19.00;99.90;;;;;;4907355;29;20034;-88
2022/08/03 03:31:20;;;;;;;3.58;1.80;;;18.90;99.90;;;;;;4903119;29;20032;-89
2022/08/03 03:33:47;;;;;;;3.85;1.88;;;18.90;99.90;;;;;;4925115;29;20036;-89
2022/08/03 03:36:12;;;;;;;3.63;1.73;;;18.90;99.90;;;;;;4965035;23;20061;-88
2022/08/03 03:38:42;;;;;;;3.85;1.65;;;18.90;99.90;;;;;;4965173;28;20026;-89
2022/08/03 03:41:09;;;;;;;3.42;1.73;;;19.00;99.90;;;;;;4968744;28;20034;-88
2022/08/03 03:43:37;;;;;;;4.75;1.85;;;18.90;99.90;;;;;;4985891;28;20019;-88
2022/08/03 03:46:07;;;;;;;3.63;1.60;;;18.90;99.90;;;;;;4968694;28;20083;-89
2022/08/03 03:48:41;;;;;;;2.75;1.52;;;18.90;99.90;;;;;;4990590;28;20015;-89
2022/08/03 03:51:23;;;;;;;3.65;1.55;;;18.90;99.90;;;;;;4965175;28;20038;-89
2022/08/03 03:54:03;;;;;;;2.88;1.40;;;18.90;99.90;;;;;;4973542;28;20023;-89
2022/08/03 03:56:34;;;;;;;3.15;1.40;;;18.80;99.90;;;;;;4968474;28;20031;-89
2022/08/03 03:59:06;;;;;;;3.53;1.60;;;18.80;99.90;;;;;;4969598;28;20069;-90
2022/08/03 04:01:35;;;;;;;3.10;1.58;;;18.80;99.90;;;;;;4973758;28;20585;-89
2022/08/03 04:12:28;;;;;;;2.97;1.52;;;18.60;99.90;;;;;;4988413;28;20420;-88
2022/08/03 04:15:01;;;;;;;4.03;1.83;;;18.80;99.90;;;;;;4971593;28;20026;-88
2022/08/03 04:17:28;;;;;;;3.88;1.90;;;18.60;99.90;;;;;;4969256;28;20031;-88
2022/08/03 04:19:56;;;;;;;3.70;2.00;;;18.60;99.90;;;;;;4962305;28;20085;-88
2022/08/03 04:22:26;;;;;;;2.95;1.75;;;18.60;99.90;;;;;;4961915;28;20035;-88
2022/08/03 04:25:01;;;;;;;3.70;1.77;;;18.60;99.90;;;;;;4974888;28;20073;-88
2022/08/03 04:27:31;;;;;;;4.35;1.80;;;18.60;99.90;;;;;;4982896;28;20031;-88
2022/08/03 04:29:58;;;;;;;3.97;2.05;;;18.60;99.90;;;;;;4966804;28;20122;-88
2022/08/03 04:32:28;;;;;;;3.88;1.45;;;18.60;99.90;;;;;;4984543;28;20054;-87
2022/08/03 04:35:02;;;;;;;3.58;1.98;;;18.70;99.90;;;;;;4964316;28;20560;-88
2022/08/03 04:37:46;;;;;;;3.10;1.80;;;18.60;99.90;;;;;;4976969;28;20054;-88
2022/08/03 04:40:23;;;;;;;3.03;1.50;;;18.60;99.90;;;;;;4979468;28;20027;-88
2022/08/03 04:42:53;;;;;;;3.22;1.48;;;18.60;99.90;;;;;;4979369;28;20026;-88
2022/08/03 04:45:23;;;;;;;3.78;1.50;;;18.70;99.90;;;;;;4983772;28;20182;-87
2022/08/03 04:47:50;;;;;;;3.72;2.25;;;18.70;99.90;;;;;;4962122;28;20026;-88
2022/08/03 04:50:16;;;;;;;4.30;1.60;;;18.70;99.90;;;;;;4970264;28;20027;-87
2022/08/03 04:52:51;;;;;;;4.82;1.90;;;18.80;99.90;;;;;;4983947;28;20035;-87
2022/08/03 04:55:30;;;;;;;4.22;2.00;;;18.80;99.90;;;;;;4978979;28;20046;-87
2022/08/03 04:57:58;;;;;;;4.25;1.70;;;18.90;99.90;;;;;;4964263;28;20087;-87
2022/08/03 05:00:24;;;;;;;7.57;2.55;;;18.90;99.90;;;;;;4965558;28;20038;-87
2022/08/03 05:02:54;;;;;;;4.88;2.40;;;19.00;99.90;;;;;;4966651;28;20037;-87
2022/08/03 05:05:22;;;;;;;4.88;1.90;;;19.10;99.90;;;;;;4967753;28;20085;-87
2022/08/03 05:07:48;;;;;;;4.57;2.20;;;19.20;99.90;;;;;;4983545;28;20018;-87
2022/08/03 05:10:15;;;;;;;4.45;2.03;;;19.20;99.90;;;;;;4961336;28;20113;-88
2022/08/03 05:12:46;;;;;;;5.05;1.80;;;19.30;99.90;;;;;;4985742;28;20033;-87
2022/08/03 05:15:12;;;;;;;3.05;1.92;;;19.40;99.90;;;;;;4971489;28;20030;-88
2022/08/03 05:17:39;;;;;;;6.72;1.77;;;19.50;99.90;;;;;;4958658;28;20034;-87
2022/08/03 05:20:05;;;;;;;3.30;1.77;;;19.50;99.90;;;;;;4973445;28;20055;-88
2022/08/03 05:22:32;;;;;;;4.13;1.65;;;19.60;99.90;;;;;;4963822;28;20031;-88
2022/08/03 05:24:59;;;;;;;3.40;1.63;;;19.80;99.90;;;;;;4983860;28;20157;-88
2022/08/03 05:27:25;;;;;;;4.28;1.90;;;19.80;99.90;;;;;;4965797;28;20021;-88
2022/08/03 05:29:51;;;;;;;4.30;2.03;;;19.80;99.90;;;;;;4962778;28;20495;-88
2022/08/03 05:32:17;;;;;;;5.20;2.40;;;20.00;99.90;;;;;;4962517;28;20050;-88
2022/08/03 05:34:44;;;;;;;4.55;1.92;;;20.00;99.90;;;;;;4985708;28;20031;-88
2022/08/03 05:37:13;;;;;;;3.78;2.03;;;20.10;99.90;;;;;;4968238;28;20041;-88
2022/08/03 05:39:39;;;;;;;4.32;2.20;;;20.10;99.90;;;;;;4974471;28;20419;-88
2022/08/03 05:42:05;;;;;;;4.72;2.00;;;20.10;99.90;;;;;;4970764;28;20074;-87
2022/08/03 05:44:37;;;;;;;4.50;1.90;;;20.20;99.90;;;;;;4971826;28;20039;-88
2022/08/03 05:47:29;;;;;;;;;;;;;;;;;;;;;
2022/08/03 05:49:57;;;;;;;3.10;1.65;;;20.40;99.90;;;;;;4986646;28;20083;-87
2022/08/03 05:52:37;;;;;;;3.67;2.00;;;20.50;99.90;;;;;;4969159;28;20030;-87
2022/08/03 05:55:06;;;;;;;4.88;2.00;;;20.60;99.90;;;;;;4982897;28;20030;-87
2022/08/03 05:57:36;;;;;;;3.90;2.00;;;20.70;99.90;;;;;;4967621;28;20027;-87
2022/08/03 06:00:10;;;;;;;3.15;1.60;;;20.80;99.90;;;;;;4971156;28;20517;-87
2022/08/03 06:02:36;;;;;;;5.18;2.08;;;20.90;99.90;;;;;;4968884;28;20034;-87
2022/08/03 06:05:02;;;;;;;3.83;1.83;;;21.00;99.90;;;;;;4990109;28;20023;-87
2022/08/03 06:07:28;;;;;;;3.45;1.73;;;21.10;99.90;;;;;;4970032;28;20066;-87
2022/08/03 06:09:54;;;;;;;3.13;1.70;;;20.90;99.90;;;;;;4981054;28;20027;-86
2022/08/03 06:12:23;;;;;;;3.78;1.85;;;20.70;99.90;;;;;;4962877;28;20028;-87
2022/08/03 06:14:48;;;;;;;3.10;1.63;;;20.80;99.90;;;;;;4973619;28;20109;-86
2022/08/03 06:17:14;;;;;;;4.30;2.10;;;20.90;99.90;;;;;;4970584;28;20043;-87
2022/08/03 06:19:43;;;;;;;4.72;2.13;;;20.70;99.90;;;;;;4956004;28;20073;-87
2022/08/03 06:22:09;;;;;;;4.40;2.15;;;20.80;99.90;;;;;;4977558;28;21022;-87
2022/08/03 06:24:40;;;;;;;4.18;2.17;;;21.00;99.90;;;;;;4979498;28;20034;-87
2022/08/03 06:27:07;;;;;;;;;;;21.20;99.90;;;;;;4977955;28;20491;-87
2022/08/03 06:29:36;;;;;;;3.42;1.50;;;21.40;99.90;;;;;;4975527;28;19914;-86
2022/08/03 06:32:02;;;;;;;3.65;1.85;;;21.50;99.90;;;;;;4987883;28;20023;-86
2022/08/03 06:34:30;;;;;;;2.90;1.45;;;21.60;99.90;;;;;;4967970;28;20043;-86
2022/08/03 06:36:56;;;;;;;4.07;1.98;;;21.60;99.90;;;;;;4969708;28;20052;-84
2022/08/03 06:39:25;;;;;;;3.25;1.75;;;21.50;99.90;;;;;;4990050;28;20037;-85
2022/08/03 06:41:53;;;;;;;4.40;1.98;;;21.60;99.90;;;;;;4995097;28;20057;-85
2022/08/03 06:44:19;;;;;;;4.32;1.75;;;21.50;99.90;;;;;;4980388;28;20022;-85
2022/08/03 06:46:46;;;;;;;4.80;1.70;;;21.50;99.90;;;;;;4979640;28;20034;-85
2022/08/03 06:49:12;;;;;;;3.35;1.80;;;21.50;99.90;;;;;;4967256;28;20035;-85
2022/08/03 06:51:37;;;;;;;2.90;1.35;;;21.70;99.90;;;;;;4986794;28;20038;-85
2022/08/03 06:54:03;;;;;;;3.20;1.30;;;21.80;99.90;;;;;;4984480;28;20027;-85
2022/08/03 06:56:29;;;;;;;3.92;1.70;;;22.00;99.90;;;;;;4962831;28;20023;-86
2022/08/03 06:58:55;;;;;;;4.28;1.17;;;22.30;99.90;;;;;;4963699;28;20027;-86
2022/08/03 07:01:21;;;;;;;4.20;1.80;;;22.30;99.90;;;;;;4958248;28;20062;-86
2022/08/03 07:03:53;;;;;;;2.30;1.15;;;22.50;99.90;;;;;;4982074;28;20027;-86
2022/08/03 07:06:19;;;;;;;2.92;1.15;;;22.60;99.90;;;;;;4964342;28;20341;-87
2022/08/03 07:08:44;;;;;;;4.43;1.60;;;22.80;99.90;;;;;;4980019;28;20078;-88
2022/08/03 07:11:10;;;;;;;2.42;1.30;;;23.00;99.90;;;;;;4985258;28;20034;-87
2022/08/03 07:13:36;;;;;;;3.55;1.35;;;23.10;99.90;;;;;;4982661;28;20066;-88
2022/08/03 07:16:05;;;;;;;3.67;1.55;;;23.20;99.90;;;;;;4981861;28;20110;-88
2022/08/03 07:18:31;;;;;;;3.22;1.40;;;23.20;99.90;;;;;;4984765;28;20047;-88
2022/08/03 07:20:57;;;;;;;3.08;1.42;;;23.30;99.90;;;;;;4968069;28;20027;-89
2022/08/03 07:23:26;;;;;;;3.60;1.27;;;23.30;99.90;;;;;;4956537;28;20050;-88
2022/08/03 07:25:52;;;;;;;3.20;1.40;;;23.50;99.90;;;;;;4986477;28;20031;-89
2022/08/03 07:28:20;;;;;;;2.53;1.10;;;23.70;99.90;;;;;;4967503;28;20030;-87
2022/08/03 07:30:49;;;;;;;4.90;1.00;;;23.90;99.90;;;;;;4988570;28;20015;-88
2022/08/03 07:33:14;;;;;;;2.30;0.73;;;24.10;99.90;;;;;;4989848;28;20042;-88
2022/08/03 07:35:43;;;;;;;4.13;1.00;;;24.30;99.90;;;;;;4984981;28;20030;-89
2022/08/03 07:38:09;;;;;;;2.70;1.10;;;24.40;99.90;;;;;;4966667;28;20027;-89
2022/08/03 07:40:35;;;;;;;2.42;0.80;;;24.50;99.90;;;;;;4985838;28;20089;-89
2022/08/03 07:43:02;;;;;;;1.65;0.73;;;24.70;99.90;;;;;;4965381;28;20027;-89
2022/08/03 07:45:29;;;;;;;2.85;0.98;;;24.90;99.90;;;;;;4984839;28;20022;-89
2022/08/03 07:47:54;;;;;;;1.55;0.60;;;24.90;99.90;;;;;;4966099;28;20019;-89
2022/08/03 07:50:21;;;;;;;1.40;0.70;;;24.90;99.90;;;;;;4983572;28;20094;-89
2022/08/03 07:52:51;;;;;;;2.40;0.50;;;25.00;99.90;;;;;;4975237;28;20027;-89
2022/08/03 07:55:26;;;;;;;0.90;0.50;;;25.20;99.90;;;;;;4969929;28;20054;-89
2022/08/03 07:58:04;;;;;;;1.63;0.68;;;25.50;99.90;;;;;;4973833;28;20076;-88
2022/08/03 08:00:33;;;;;;;2.13;0.82;;;25.70;99.90;;;;;;4975045;28;20030;-90
2022/08/03 08:02:58;;;;;;;2.00;0.90;;;25.70;99.90;;;;;;4971363;28;20030;-89
2022/08/03 08:05:25;;;;;;;1.33;0.65;;;25.90;99.90;;;;;;4988965;28;20011;-89
2022/08/03 08:07:54;;;;;;;2.13;0.77;;;25.90;99.90;;;;;;4989931;28;20100;-89
2022/08/03 08:10:23;;;;;;;3.63;0.90;;;26.00;99.90;;;;;;4973959;28;20089;-90
2022/08/03 08:12:49;;;;;;;1.55;0.70;;;26.10;99.90;;;;;;4983819;28;20093;-89
2022/08/03 08:15:15;;;;;;;1.48;0.60;;;26.30;99.90;;;;;;4968772;28;20023;-89
2022/08/03 08:17:52;;;;;;;1.20;0.60;;;26.30;99.90;;;;;;4980929;28;20110;-89
2022/08/03 08:20:37;;;;;;;1.67;0.70;;;26.40;99.90;;;;;;4986908;28;20018;-88
2022/08/03 08:23:05;;;;;;;1.02;0.50;;;26.60;99.90;;;;;;4970129;28;20019;-89
2022/08/03 08:25:34;;;;;;;1.25;0.40;;;26.70;99.80;;;;;;4973193;28;20038;-88
2022/08/03 08:28:08;;;;;;;1.02;0.40;;;26.70;99.90;;;;;;4963358;28;20676;-88
2022/08/03 08:30:36;;;;;;;0.80;0.40;;;26.80;99.90;;;;;;4976077;28;20480;-89
2022/08/03 08:33:02;;;;;;;1.20;0.70;;;26.90;99.20;;;;;;4988735;28;20042;-89
2022/08/03 08:35:28;;;;;;;1.10;0.40;;;26.90;99.20;;;;;;4983921;28;20015;-90
2022/08/03 08:37:54;;;;;;;1.55;0.30;;;26.80;98.20;;;;;;4984946;28;20054;-89
2022/08/03 08:40:21;;;;;;;0.70;0.40;;;27.00;98.00;;;;;;4968281;28;20057;-89
2022/08/03 08:42:49;;;;;;;0.40;0.20;;;27.00;98.30;;;;;;4983789;28;20023;-89
2022/08/03 08:45:15;;;;;;;0.80;0.30;;;26.80;97.00;;;;;;4984122;28;20018;-89
2022/08/03 08:47:46;;;;;;;1.45;0.40;;;27.00;98.30;;;;;;4981520;28;20026;-90
2022/08/03 08:50:12;;;;;;;;;;;27.00;97.20;;;;;;4965594;28;20049;-90
2022/08/03 08:52:45;;;;;;;0.95;0.30;;;27.30;96.40;;;;;;4983646;28;19906;-90
2022/08/03 08:55:16;;;;;;;0.68;0.30;;;27.50;96.40;;;;;;4983665;28;20039;-89
2022/08/03 08:57:44;;;;;;;;;;;27.60;96.40;;;;;;4979002;28;20050;-90
2022/08/03 09:00:14;;;;;;;1.17;0.30;;;27.80;95.50;;;;;;4979363;28;19937;-89
2022/08/03 09:02:43;;;;;;;0.82;0.30;;;27.90;95.60;;;;;;4988517;28;20022;-90
2022/08/03 09:05:12;;;;;;;0.80;0.30;;;28.20;95.60;;;;;;4955336;28;20015;-89
2022/08/03 09:07:38;;;;;;;1.05;0.30;;;27.80;95.50;;;;;;4955173;28;20022;-89
2022/08/03 09:10:07;;;;;;;1.30;0.47;;;27.80;95.90;;;;;;4966858;28;20380;-90
2022/08/03 09:12:47;;;;;;;0.50;0.20;;;27.80;95.90;;;;;;4967948;28;20055;-90
2022/08/03 09:15:26;;;;;;;0.75;0.30;;;27.80;95.50;;;;;;4954874;28;20030;-90
2022/08/03 09:17:55;;;;;;;1.40;0.30;;;27.90;96.10;;;;;;4966696;28;20078;-90
2022/08/03 09:20:22;;;;;;;0.63;0.35;;;28.30;96.00;;;;;;4954618;28;20122;-90
2022/08/03 09:22:53;;;;;;;0.52;0.28;;;28.40;95.60;;;;;;4969410;28;20027;-89
2022/08/03 09:25:26;;;;;;;0.63;0.30;;;28.50;94.90;;;;;;4950856;28;20480;-88
2022/08/03 09:27:51;;;;;;;0.70;0.30;;;28.70;94.60;;;;;;4969798;28;20420;-90
2022/08/03 09:30:19;;;;;;;0.82;0.40;;;29.10;95.10;;;;;;4969490;28;20102;-90
2022/08/03 09:32:45;;;;;;;0.55;0.30;;;29.30;94.80;;;;;;4954719;28;20033;-90
2022/08/03 09:35:12;;;;;;;0.93;0.30;;;29.50;94.40;;;;;;4976784;28;20027;-90
2022/08/03 09:37:39;;;;;;;0.75;0.20;;;29.40;93.90;;;;;;4956371;28;20039;-91
2022/08/03 09:40:05;;;;;;;0.65;0.30;;;29.40;94.30;;;;;;4952985;28;20134;-90
2022/08/03 09:42:34;;;;;;;2.47;0.57;;;29.00;93.70;;;;;;4956155;28;20537;-90
2022/08/03 09:44:59;;;;;;;0.70;0.28;;;29.10;94.50;;;;;;4971565;28;20014;-90
2022/08/03 09:47:35;;;;;;;0.93;0.60;;;29.30;94.40;;;;;;4967672;28;20647;-89
2022/08/03 09:50:06;;;;;;;1.17;0.40;;;29.30;93.50;;;;;;4970314;28;20462;-90
2022/08/03 09:52:36;;;;;;;;;;;29.60;93.00;;;;;;4955951;28;20110;-90
2022/08/03 09:55:12;;;;;;;1.05;0.40;;;29.90;92.50;;;;;;4971414;28;19914;-91
2022/08/03 09:57:45;;;;;;;0.47;0.20;;;30.00;91.70;;;;;;4954762;28;20027;-90
2022/08/03 10:00:13;;;;;;;0.60;0.20;;;30.10;91.90;;;;;;4954546;28;20035;-91
2022/08/03 10:02:41;;;;;;;0.80;0.40;;;30.20;89.70;;;;;;4951877;28;20038;-91
2022/08/03 10:05:09;;;;;;;0.82;0.30;;;30.40;90.10;;;;;;4949884;28;20065;-91
2022/08/03 10:07:46;;;;;;;0.40;0.22;;;30.40;87.50;;;;;;4971396;28;20030;-91
2022/08/03 10:10:13;;;;;;;1.05;0.45;;;30.30;87.50;;;;;;4970300;28;20027;-90
2022/08/03 10:12:40;;;;;;;0.80;0.38;;;30.60;89.30;;;;;;4952142;28;20026;-91
2022/08/03 10:15:07;;;;;;;0.55;0.30;;;30.80;88.00;;;;;;4953766;28;20368;-90
2022/08/03 10:17:33;;;;;;;1.30;0.25;;;30.70;87.70;;;;;;4954524;28;20029;-88
2022/08/03 10:19:59;;;;;;;0.85;0.30;;;30.90;87.40;;;;;;4953249;28;20025;-89
2022/08/03 10:22:27;;;;;;;0.95;0.30;;;31.10;87.60;;;;;;4971101;28;20117;-89
2022/08/03 10:24:58;;;;;;;0.70;0.30;;;31.40;84.90;;;;;;4954030;28;20042;-88
2022/08/03 10:27:25;;;;;;;0.38;0.20;;;31.70;85.20;;;;;;4954094;28;20023;-89
2022/08/03 10:29:55;;;;;;;2.00;0.40;;;31.90;84.90;;;;;;4968294;28;20070;-88
2022/08/03 10:32:35;;;;;;;1.25;0.40;;;32.10;85.30;;;;;;4957192;28;20038;-88
2022/08/03 10:35:18;;;;;;;0.40;0.22;;;32.10;83.40;;;;;;4959273;28;20099;-88
2022/08/03 10:37:56;;;;;;;0.75;0.30;;;32.00;79.80;;;;;;4949606;28;21595;-88
2022/08/03 10:40:23;;;;;;;0.60;0.30;;;32.20;81.60;;;;;;4947226;28;20144;-88
2022/08/03 10:42:53;;;;;;;1.27;0.32;;;32.10;83.40;;;;;;4972314;28;20049;-87
2022/08/03 10:45:22;;;;;;;0.52;0.30;;;32.20;82.50;;;;;;4954052;28;20507;-87
2022/08/03 10:48:01;;;;;;;0.60;0.25;;;32.30;83.00;;;;;;4954499;28;20081;-89
2022/08/03 10:50:28;;;;;;;1.10;0.45;;;32.50;77.70;;;;;;4968106;28;20399;-89
2022/08/03 10:52:57;;;;;;;0.45;0.28;;;32.00;77.70;;;;;;4952139;28;20365;-89
2022/08/03 10:58:51;;;;;;;1.58;0.40;;;31.90;77.70;;;;;;4974153;28;20053;-89
2022/08/03 11:01:18;;;;;;;0.80;0.30;;;31.90;79.10;;;;;;4970985;28;20023;-90
2022/08/03 11:03:56;;;;;;;1.83;0.47;;;32.30;80.10;;;;;;4969186;28;20033;-90
2022/08/03 11:06:24;;;;;;;1.27;0.40;;;32.50;79.30;;;;;;4958301;28;20027;-91
2022/08/03 11:09:09;;;;;;;0.75;0.30;;;32.00;75.70;;;;;;4958508;28;20074;-91
2022/08/03 11:11:46;;;;;;;0.60;0.20;;;32.00;76.90;;;;;;4955165;28;20050;-90
2022/08/03 11:14:24;;;;;;;0.98;0.40;;;31.90;76.60;;;;;;4972906;28;20035;-90
2022/08/03 11:17:07;;;;;;;0.93;0.50;;;32.10;75.40;;;;;;4973661;28;20059;-90
2022/08/03 11:19:47;;;;;;;1.08;0.40;;;32.20;76.20;;;;;;4955239;28;20111;-90
2022/08/03 11:22:14;;;;;;;0.82;0.47;;;32.40;75.40;;;;;;4953793;28;20051;-89
2022/08/03 11:24:56;;;;;;;1.08;0.50;;;32.80;75.40;;;;;;4978400;28;20122;-90
2022/08/03 11:27:32;;;;;;;1.20;0.35;;;32.90;74.80;;;;;;4970495;28;20023;-90
2022/08/03 11:30:06;;;;;;;1.20;0.35;;;33.30;76.50;;;;;;4958264;28;20434;-91
2022/08/03 11:32:55;;;;;;;0.73;0.40;;;33.30;74.50;;;;;;4960742;28;20035;-90
2022/08/03 11:35:23;;;;;;;0.77;0.40;;;33.50;74.40;;;;;;4954993;28;20026;-90
2022/08/03 11:38:04;;;;;;;0.40;0.20;;;33.20;75.10;;;;;;4974059;28;20080;-90
2022/08/03 11:40:53;;;;;;;0.85;0.40;;;33.60;74.30;;;;;;4956581;28;20091;-90
2022/08/03 11:43:29;;;;;;;1.17;0.50;;;33.80;74.70;;;;;;4951381;28;20035;-90
2022/08/03 11:46:05;;;;;;;0.50;0.30;;;33.80;73.70;;;;;;4973658;28;20077;-90
2022/08/03 11:48:36;;;;;;;1.20;0.50;;;34.10;73.20;;;;;;4972001;28;20427;-89
2022/08/03 11:51:17;;;;;;;0.70;0.32;;;33.80;74.10;;;;;;4955563;28;20022;-90
2022/08/03 11:53:43;;;;;;;;;;;33.60;73.40;;;;;;4972957;28;20046;-90
2022/08/03 11:56:08;;;;;;;0.43;0.20;;;33.70;73.60;;;;;;4956030;28;19906;-90
2022/08/03 11:58:35;;;;;;;0.70;0.30;;;34.00;74.10;;;;;;4957435;28;20062;-90
2022/08/03 12:01:05;;;;;;;1.00;0.50;;;34.10;72.00;;;;;;4956492;28;20472;-88
2022/08/03 12:03:33;;;;;;;0.93;0.40;;;34.50;72.20;;;;;;4953324;28;20070;-90
2022/08/03 12:06:01;;;;;;;0.47;0.20;;;34.90;71.90;;;;;;4974283;28;20029;-90
2022/08/03 12:08:26;;;;;;;0.90;0.40;;;35.10;71.70;;;;;;4955490;28;20403;-90
2022/08/03 12:10:53;;;;;;;1.35;0.65;;;35.30;70.60;;;;;;4955293;28;20111;-90
2022/08/03 12:13:20;;;;;;;0.80;0.30;;;35.60;71.40;;;;;;4974400;28;20476;-90
2022/08/03 12:15:54;;;;;;;0.75;0.40;;;35.70;70.50;;;;;;4956579;28;20026;-89
2022/08/03 12:18:22;;;;;;;0.60;0.30;;;35.90;70.50;;;;;;4957096;28;20022;-90
2022/08/03 12:20:50;;;;;;;0.90;0.40;;;35.80;67.70;;;;;;4950698;28;20027;-91
2022/08/03 12:23:17;;;;;;;0.95;0.40;;;35.60;67.70;;;;;;4961400;28;20403;-90
2022/08/03 12:25:44;;;;;;;1.27;0.47;;;35.10;68.00;;;;;;4957077;28;20029;-90
2022/08/03 12:28:18;;;;;;;0.93;0.40;;;35.30;68.50;;;;;;4961263;28;20026;-89
2022/08/03 12:30:48;;;;;;;0.93;0.40;;;35.60;68.60;;;;;;4970309;28;20019;-90
2022/08/03 12:33:25;;;;;;;1.00;0.40;;;35.30;69.50;;;;;;4956315;28;20058;-90
2022/08/03 12:36:11;;;;;;;0.70;0.40;;;34.30;68.20;;;;;;4973592;28;20411;-90
2022/08/03 12:38:38;;;;;;;1.73;0.50;;;34.30;68.90;;;;;;4973798;28;20487;-90
2022/08/03 12:41:15;;;;;;;1.05;0.50;;;34.30;67.60;;;;;;4973303;28;20026;-90
2022/08/03 12:43:48;;;;;;;0.60;0.40;;;34.90;68.10;;;;;;4971855;28;20170;-90
2022/08/03 12:46:15;;;;;;;0.75;0.30;;;35.30;66.60;;;;;;4955799;28;20552;-91
2022/08/03 12:49:06;;;;;;;0.90;0.35;;;35.60;67.00;;;;;;4968767;28;20046;-90
2022/08/03 12:51:55;;;;;;;0.98;0.30;;;35.50;66.40;;;;;;4965229;28;20047;-90
2022/08/03 12:54:31;;;;;;;0.68;0.35;;;35.80;67.30;;;;;;4954648;28;20038;-89
2022/08/03 12:57:09;;;;;;;0.70;0.30;;;36.10;67.40;;;;;;4950389;28;20027;-90
2022/08/03 12:59:36;;;;;;;0.70;0.30;;;36.00;66.30;;;;;;4973590;28;20570;-88
2022/08/03 13:02:03;;;;;;;1.45;0.40;;;36.10;66.60;;;;;;4957447;28;20105;-90
2022/08/03 13:04:31;;;;;;;1.02;0.47;;;36.40;66.30;;;;;;4959178;28;20026;-89
2022/08/03 13:07:03;;;;;;;0.80;0.40;;;36.30;65.80;;;;;;4953513;28;20033;-89
2022/08/03 13:09:32;;;;;;;0.95;0.40;;;36.30;65.90;;;;;;4956583;28;20049;-89
2022/08/03 13:12:28;;;;;;;0.50;0.32;;;36.20;65.70;;;;;;4956527;28;20026;-89
2022/08/03 13:14:59;;;;;;;0.68;0.28;;;36.70;64.70;;;;;;4951098;28;20027;-88
2022/08/03 13:17:25;;;;;;;;;;;36.60;64.60;;;;;;4955889;28;20122;-89
2022/08/03 13:19:56;;;;;;;1.67;0.32;;;36.30;64.40;;;;;;4955944;28;19909;-88
2022/08/03 13:22:27;;;;;;;1.48;0.52;;;36.10;64.90;;;;;;4962425;28;20035;-88
2022/08/03 13:24:56;;;;;;;0.80;0.40;;;36.10;64.30;;;;;;4954749;28;20029;-89
2022/08/03 13:27:23;;;;;;;0.95;0.45;;;36.40;64.90;;;;;;4967748;28;20030;-88
2022/08/03 13:29:49;;;;;;;1.15;0.43;;;36.40;62.40;;;;;;4960684;28;20023;-89
2022/08/03 13:32:15;;;;;;;2.97;0.43;;;36.40;63.40;;;;;;4975583;28;20054;-89
2022/08/03 13:34:42;;;;;;;1.08;0.50;;;36.60;62.90;;;;;;4958001;28;20023;-88
2022/08/03 13:37:17;;;;;;;0.70;0.22;;;37.00;64.30;;;;;;4958803;28;20058;-89
2022/08/03 13:39:43;;;;;;;1.77;0.63;;;36.80;63.40;;;;;;4958634;28;20026;-89
2022/08/03 13:42:09;;;;;;;1.75;0.35;;;37.10;64.70;;;;;;4974381;28;20696;-89